Time;durP1;ratioP1;P1;durP2;ratioP2;P2;SDS_P1;SDS_P2;PMS_P1;PMS_P2;Temp;Humidity;BMP_temperature;BMP_pressure;BME280_temperature;BME280_humidity;BME280_pressure;Samples;Min_cycle;Max_cycle;Signal;HPM_P1;HPM_P2
2022/10/16 00:00:24;;;;;;;6.75;4.00;;;;;;;11.24;100.00;100840.78;5260933;28;20072;-65
2022/10/16 00:02:55;;;;;;;7.40;3.80;;;;;;;11.25;100.00;100834.44;5270744;28;20027;-64
2022/10/16 00:05:26;;;;;;;6.05;3.90;;;;;;;11.31;100.00;100835.78;5265891;28;20052;-65
2022/10/16 00:07:58;;;;;;;7.47;4.00;;;;;;;11.22;100.00;100826.69;5265733;28;20028;-64
2022/10/16 00:10:29;;;;;;;7.25;3.65;;;;;;;11.22;100.00;100826.69;5270783;28;20133;-64
2022/10/16 00:13:00;;;;;;;7.03;3.92;;;;;;;11.28;100.00;100825.34;5261311;28;20075;-64
2022/10/16 00:15:36;;;;;;;9.02;4.57;;;;;;;11.25;100.00;100837.13;5264408;28;20349;-64
2022/10/16 00:18:07;;;;;;;7.07;3.97;;;;;;;11.18;100.00;100831.44;5267959;28;20051;-64
2022/10/16 00:20:39;;;;;;;7.93;3.92;;;;;;;11.21;100.00;100832.16;5263267;28;20013;-64
2022/10/16 00:23:10;;;;;;;7.53;4.20;;;;;;;11.18;100.00;100827.91;5271988;28;20043;-64
2022/10/16 00:25:42;;;;;;;6.25;3.70;;;;;;;11.20;100.00;100828.63;5261503;28;20063;-67
2022/10/16 00:28:13;;;;;;;6.93;3.83;;;;;;;11.17;100.00;100827.03;5268007;28;20035;-64
2022/10/16 00:30:44;;;;;;;5.75;3.45;;;;;;;11.15;100.00;100837.00;5257645;28;20084;-64
2022/10/16 00:33:15;;;;;;;6.53;3.70;;;;;;;11.09;100.00;100824.13;5259516;28;20499;-64
2022/10/16 00:35:48;;;;;;;7.80;3.58;;;;;;;11.08;100.00;100822.44;5254980;28;20498;-65
2022/10/16 00:38:19;;;;;;;7.80;3.55;;;;;;;11.14;100.00;100834.44;5260739;28;20039;-65
2022/10/16 00:40:50;;;;;;;7.18;4.07;;;;;;;11.12;100.00;100837.25;5255248;28;20016;-64
2022/10/16 00:43:46;;;;;;;9.25;3.80;;;;;;;11.12;100.00;100839.94;5258948;28;20473;-64
2022/10/16 00:46:21;;;;;;;7.28;4.53;;;;;;;11.08;100.00;100838.44;5244229;28;20521;-64
2022/10/16 00:49:14;;;;;;;7.07;3.40;;;;;;;11.05;100.00;100835.19;5250997;28;20055;-65
2022/10/16 00:51:49;;;;;;;5.15;3.20;;;;;;;11.05;100.00;100844.03;5253658;28;20043;-64
2022/10/16 00:54:27;;;;;;;6.20;3.40;;;;;;;11.05;100.00;100838.72;5256167;28;20057;-64
2022/10/16 00:57:02;;;;;;;6.30;3.42;;;;;;;11.03;100.00;100840.66;5251841;28;20055;-64
2022/10/16 00:59:41;;;;;;;5.60;3.10;;;;;;;10.93;100.00;100843.19;5256390;28;20697;-64
2022/10/16 01:02:15;;;;;;;6.95;3.47;;;;;;;11.05;100.00;100846.72;5262231;28;20385;-64
2022/10/16 01:04:52;;;;;;;6.53;3.30;;;;;;;10.90;100.00;100834.56;5262551;28;20028;-64
2022/10/16 01:07:25;;;;;;;7.53;3.40;;;;;;;10.92;100.00;100830.81;5265202;28;20059;-64
2022/10/16 01:10:20;;;;;;;6.72;3.00;;;;;;;10.88;100.00;100824.00;5264777;28;20058;-64
2022/10/16 01:13:06;;;;;;;;;;;;;;;10.93;100.00;100828.97;5263841;28;20033;-64
2022/10/16 01:15:42;;;;;;;6.00;3.10;;;;;;;10.93;100.00;100834.31;5272561;28;19916;-64
2022/10/16 01:18:26;;;;;;;7.47;3.72;;;;;;;10.90;100.00;100829.22;5265190;28;20024;-67
2022/10/16 01:21:02;;;;;;;7.65;3.70;;;;;;;10.86;100.00;100831.28;5266074;28;20547;-64
2022/10/16 01:24:06;;;;;;;7.10;3.22;;;;;;;10.87;100.00;100835.63;5263127;28;20108;-64
2022/10/16 01:27:08;;;;;;;5.47;3.08;;;;;;;10.89;100.00;100840.88;5262069;28;20035;-64
2022/10/16 01:30:07;;;;;;;6.90;3.30;;;;;;;10.85;100.00;100836.75;5272687;28;20032;-64
2022/10/16 01:32:49;;;;;;;10.88;4.13;;;;;;;10.85;100.00;100836.75;5264411;28;20215;-64
2022/10/16 01:35:50;;;;;;;5.95;3.45;;;;;;;10.88;100.00;100840.03;5275993;28;20032;-64
2022/10/16 01:38:33;;;;;;;9.82;3.20;;;;;;;10.85;100.00;100839.41;5277409;28;20028;-64
2022/10/16 01:41:14;;;;;;;6.90;3.30;;;;;;;10.86;100.00;100844.63;5269575;28;20020;-64
2022/10/16 01:43:49;;;;;;;6.57;3.30;;;;;;;10.93;100.00;100845.00;5263369;28;20027;-64
2022/10/16 01:46:23;;;;;;;5.15;3.13;;;;;;;10.99;100.00;100839.19;5254055;28;20064;-64
2022/10/16 01:48:55;;;;;;;7.07;2.90;;;;;;;10.91;100.00;100834.47;5274818;28;20112;-64
2022/10/16 01:51:29;;;;;;;5.20;3.08;;;;;;;10.94;100.00;100833.34;5281005;28;20432;-64
2022/10/16 01:54:01;;;;;;;5.82;2.65;;;;;;;10.89;100.00;100833.72;5253223;28;20095;-64
2022/10/16 01:56:34;;;;;;;6.57;3.10;;;;;;;10.93;100.00;100832.50;5272802;28;20025;-64
2022/10/16 01:59:19;;;;;;;5.68;3.00;;;;;;;10.97;100.00;100830.47;5259378;28;20025;-64
2022/10/16 02:01:58;;;;;;;5.45;2.67;;;;;;;10.93;100.00;100827.19;5257348;28;20028;-64
2022/10/16 02:04:34;;;;;;;5.78;2.67;;;;;;;10.97;100.00;100838.47;5272153;28;20044;-64
2022/10/16 02:07:06;;;;;;;4.55;2.50;;;;;;;11.03;100.00;100840.66;5270969;28;20055;-64
2022/10/16 02:09:38;;;;;;;5.65;2.85;;;;;;;11.02;100.00;100840.75;5270163;28;20401;-64
2022/10/16 02:12:39;;;;;;;6.07;2.70;;;;;;;10.99;100.00;100850.72;5271642;28;20078;-64
2022/10/16 02:15:10;;;;;;;5.22;2.78;;;;;;;10.97;100.00;100836.63;5278967;28;20044;-64
2022/10/16 02:17:42;;;;;;;4.65;2.50;;;;;;;10.95;100.00;100851.94;5258264;28;20073;-64
2022/10/16 02:20:13;;;;;;;4.88;2.42;;;;;;;10.95;100.00;100843.09;5281078;28;20717;-65
2022/10/16 02:22:49;;;;;;;6.38;2.75;;;;;;;10.97;100.00;100843.81;5279812;28;20028;-64
2022/10/16 02:25:37;;;;;;;4.78;2.33;;;;;;;11.08;100.00;100830.44;5272767;28;20029;-65
2022/10/16 02:28:17;;;;;;;4.85;2.25;;;;;;;10.93;100.00;100845.00;5289100;28;20032;-65
2022/10/16 02:30:59;;;;;;;5.85;2.30;;;;;;;10.90;100.00;100846.09;5274338;28;20616;-64
2022/10/16 02:33:33;;;;;;;3.95;2.20;;;;;;;10.96;100.00;100839.41;5272420;28;20039;-64
2022/10/16 02:36:05;;;;;;;4.63;2.33;;;;;;;10.87;100.00;100840.13;5278103;28;20111;-64
2022/10/16 02:38:38;;;;;;;7.07;2.22;;;;;;;10.84;100.00;100843.06;5286362;28;20034;-64
2022/10/16 02:41:10;;;;;;;6.00;2.47;;;;;;;10.88;100.00;100857.88;5283090;28;20026;-64
2022/10/16 02:43:41;;;;;;;4.10;2.20;;;;;;;10.81;100.00;100848.63;5276915;28;20027;-64
2022/10/16 02:46:12;;;;;;;5.75;2.78;;;;;;;10.79;100.00;100848.75;5274599;28;20117;-64
2022/10/16 02:48:44;;;;;;;5.85;2.25;;;;;;;10.78;100.00;100839.06;5284198;28;20036;-64
2022/10/16 02:51:15;;;;;;;4.63;2.15;;;;;;;10.87;100.00;100842.81;5274097;28;20188;-64
2022/10/16 02:53:46;;;;;;;5.10;2.20;;;;;;;10.83;100.00;100844.03;5275550;28;20056;-64
2022/10/16 02:56:17;;;;;;;4.40;1.90;;;;;;;10.89;100.00;100838.19;5274065;28;20059;-64
2022/10/16 02:58:49;;;;;;;3.67;1.75;;;;;;;10.86;100.00;100827.78;5270260;28;20028;-64
2022/10/16 03:01:20;;;;;;;5.70;2.05;;;;;;;10.79;100.00;100830.91;5276622;28;20075;-64
2022/10/16 03:03:51;;;;;;;9.43;2.30;;;;;;;10.79;100.00;100843.41;5268777;28;20031;-64
2022/10/16 03:06:23;;;;;;;5.50;1.95;;;;;;;10.74;100.00;100848.28;5278658;28;20030;-64
2022/10/16 03:08:54;;;;;;;3.65;1.85;;;;;;;10.77;100.00;100848.00;5276669;28;20040;-64
2022/10/16 03:11:26;;;;;;;6.47;2.58;;;;;;;10.79;100.00;100848.75;5286707;28;20036;-64
2022/10/16 03:13:57;;;;;;;4.05;1.70;;;;;;;10.70;100.00;100839.66;5278905;28;20036;-64
2022/10/16 03:16:29;;;;;;;3.72;1.70;;;;;;;10.72;100.00;100843.03;5274903;28;20032;-64
2022/10/16 03:19:00;;;;;;;5.20;2.05;;;;;;;10.71;100.00;100844.00;5281175;28;20128;-64
2022/10/16 03:21:32;;;;;;;3.42;2.00;;;;;;;10.75;100.00;100863.28;5280993;28;20080;-64
2022/10/16 03:24:03;;;;;;;5.95;2.08;;;;;;;10.72;100.00;100856.38;5276254;28;20435;-64
2022/10/16 03:26:35;;;;;;;3.72;1.63;;;;;;;10.77;100.00;100864.03;5284070;28;20090;-64
2022/10/16 03:29:06;;;;;;;7.03;2.05;;;;;;;10.73;100.00;100865.22;5276666;28;20036;-64
2022/10/16 03:31:37;;;;;;;4.60;1.60;;;;;;;10.77;100.00;100872.03;5269595;28;20697;-66
2022/10/16 03:34:09;;;;;;;4.38;1.90;;;;;;;10.71;100.00;100883.19;5270590;28;20116;-64
2022/10/16 03:36:40;;;;;;;3.15;1.60;;;;;;;10.71;100.00;100873.34;5268625;28;20489;-64
2022/10/16 03:39:11;;;;;;;4.70;1.38;;;;;;;10.74;100.00;100867.78;5262107;28;20028;-64
2022/10/16 03:41:42;;;;;;;4.72;1.60;;;;;;;10.85;100.00;100874.09;5273665;28;20049;-64
2022/10/16 03:44:14;;;;;;;4.50;2.00;;;;;;;10.77;100.00;100878.22;5269477;28;20024;-64
2022/10/16 03:46:45;;;;;;;5.47;1.73;;;;;;;10.85;100.00;100887.44;5271805;28;20367;-65
2022/10/16 03:49:16;;;;;;;5.30;1.88;;;;;;;10.82;100.00;100891.22;5266749;28;20441;-64
2022/10/16 03:51:48;;;;;;;4.22;1.90;;;;;;;10.78;100.00;100885.25;5277744;28;20562;-64
2022/10/16 03:54:19;;;;;;;3.58;1.58;;;;;;;10.78;100.00;100885.25;5267844;28;20433;-64
2022/10/16 03:56:50;;;;;;;4.72;1.80;;;;;;;10.77;100.00;100891.56;5253782;28;20037;-65
2022/10/16 03:59:22;;;;;;;2.75;1.65;;;;;;;10.85;100.00;100887.44;5254325;28;20453;-64
2022/10/16 04:01:53;;;;;;;6.43;1.80;;;;;;;10.84;100.00;100888.44;5257684;28;21267;-64
2022/10/16 04:04:24;;;;;;;4.00;1.60;;;;;;;10.94;100.00;100889.41;5257234;28;20425;-64
2022/10/16 04:06:56;;;;;;;4.43;1.75;;;;;;;10.90;100.00;100887.97;5257730;28;20504;-64
2022/10/16 04:09:27;;;;;;;4.57;2.00;;;;;;;10.91;100.00;100890.50;5267255;28;21216;-64
2022/10/16 04:11:58;;;;;;;5.65;1.65;;;;;;;10.94;100.00;100892.09;5253908;28;20041;-64
2022/10/16 04:14:30;;;;;;;4.80;1.92;;;;;;;10.86;100.00;100897.19;5255258;28;20359;-64
2022/10/16 04:17:01;;;;;;;5.43;2.67;;;;;;;10.96;100.00;100898.16;5273956;28;20424;-64
2022/10/16 04:19:32;;;;;;;3.00;1.80;;;;;;;10.91;100.00;100895.84;5268720;28;20074;-64
2022/10/16 04:22:03;;;;;;;4.30;2.35;;;;;;;10.91;100.00;100895.84;5266541;28;20033;-64
2022/10/16 04:24:35;;;;;;;7.05;2.72;;;;;;;10.88;100.00;100901.41;5268831;28;20033;-64
2022/10/16 04:27:06;;;;;;;6.30;2.45;;;;;;;10.90;100.00;100894.13;5259205;28;20657;-64
2022/10/16 04:29:37;;;;;;;4.00;2.20;;;;;;;10.95;100.00;100888.47;5250744;28;20433;-64
2022/10/16 04:32:09;;;;;;;7.10;2.58;;;;;;;10.94;100.00;100889.41;5251938;28;20028;-64
2022/10/16 04:34:41;;;;;;;6.03;2.90;;;;;;;10.90;100.00;100896.81;5258660;28;20038;-64
2022/10/16 04:37:12;;;;;;;7.78;2.63;;;;;;;10.94;100.00;100908.09;5250190;28;20541;-64
2022/10/16 04:39:44;;;;;;;3.97;2.28;;;;;;;10.94;100.00;100911.63;5254158;28;20539;-64
2022/10/16 04:42:15;;;;;;;6.78;2.50;;;;;;;10.93;100.00;100917.06;5255881;28;20086;-64
2022/10/16 04:44:47;;;;;;;4.30;2.70;;;;;;;10.91;100.00;100922.53;5256797;28;20028;-64
2022/10/16 04:47:18;;;;;;;5.28;2.20;;;;;;;10.97;100.00;100923.91;5254807;28;20658;-64
2022/10/16 04:49:49;;;;;;;5.55;2.63;;;;;;;10.91;100.00;100927.00;5251973;28;20036;-64
2022/10/16 04:52:21;;;;;;;5.32;2.47;;;;;;;10.97;100.00;100915.88;5254299;28;20025;-64
2022/10/16 04:54:53;;;;;;;6.05;2.50;;;;;;;10.93;100.00;100925.94;5254807;28;20868;-64
2022/10/16 04:57:25;;;;;;;4.55;2.17;;;;;;;10.95;100.00;100929.34;5262680;28;20115;-64
2022/10/16 04:59:56;;;;;;;6.10;2.35;;;;;;;10.90;100.00;100934.19;5260857;28;20038;-65
2022/10/16 05:02:27;;;;;;;5.18;2.70;;;;;;;10.88;100.00;100940.63;5255773;28;20032;-64
2022/10/16 05:04:59;;;;;;;4.25;2.40;;;;;;;10.90;100.00;100950.19;5248898;28;20037;-64
2022/10/16 05:07:30;;;;;;;5.05;2.40;;;;;;;10.87;100.00;100957.59;5251750;28;20037;-65
2022/10/16 05:10:02;;;;;;;3.33;2.20;;;;;;;10.96;100.00;100962.22;5255156;28;20032;-64
2022/10/16 05:12:33;;;;;;;5.00;2.40;;;;;;;10.87;100.00;100969.09;5282931;28;20089;-64
2022/10/16 05:15:05;;;;;;;4.00;2.15;;;;;;;10.84;100.00;100964.00;5274434;28;20407;-64
2022/10/16 05:17:36;;;;;;;4.50;2.40;;;;;;;10.81;100.00;100958.06;5251036;28;20036;-64
2022/10/16 05:20:08;;;;;;;6.18;2.55;;;;;;;10.79;100.00;100953.66;5253786;28;20024;-64
2022/10/16 05:22:39;;;;;;;6.00;2.55;;;;;;;10.78;100.00;100962.66;5262927;28;20032;-64
2022/10/16 05:25:10;;;;;;;6.13;2.40;;;;;;;10.83;100.00;100961.47;5262483;28;20082;-64
2022/10/16 05:27:42;;;;;;;6.72;2.45;;;;;;;10.84;100.00;100961.34;5267281;28;20034;-64
2022/10/16 05:30:13;;;;;;;4.68;2.42;;;;;;;10.84;100.00;100961.34;5266090;28;20032;-64
2022/10/16 05:32:49;;;;;;;5.10;2.60;;;;;;;10.77;100.00;100966.28;5261913;28;20036;-64
2022/10/16 05:35:20;;;;;;;5.78;2.40;;;;;;;10.85;100.00;100971.03;5268410;28;20036;-64
2022/10/16 05:37:52;;;;;;;4.13;2.13;;;;;;;10.81;100.00;100974.91;5278118;28;20033;-64
2022/10/16 05:40:23;;;;;;;5.13;2.20;;;;;;;10.77;100.00;100981.44;5272500;28;20406;-64
2022/10/16 05:42:55;;;;;;;7.13;2.47;;;;;;;10.88;100.00;100986.84;5279594;28;20028;-64
2022/10/16 05:45:27;;;;;;;6.13;2.67;;;;;;;10.90;100.00;100992.06;5268017;28;20044;-64
2022/10/16 05:47:59;;;;;;;5.45;2.40;;;;;;;10.73;100.00;100998.66;5264017;28;20419;-64
2022/10/16 05:50:31;;;;;;;9.38;2.60;;;;;;;10.79;100.00;101009.72;5262694;28;20028;-64
2022/10/16 05:53:02;;;;;;;4.70;2.42;;;;;;;10.75;100.00;100997.56;5261538;28;20421;-64
2022/10/16 05:55:33;;;;;;;5.78;2.38;;;;;;;10.75;100.00;101005.59;5259047;28;20456;-65
2022/10/16 05:58:05;;;;;;;4.85;2.40;;;;;;;10.72;100.00;101013.84;5260595;28;20032;-64
2022/10/16 06:00:36;;;;;;;6.53;2.60;;;;;;;10.73;100.00;101018.19;5258311;28;20128;-64
2022/10/16 06:03:07;;;;;;;5.25;2.58;;;;;;;10.71;100.00;101020.13;5262033;28;20025;-65
2022/10/16 06:05:39;;;;;;;7.05;2.60;;;;;;;10.67;100.00;101020.47;5266025;28;20025;-64
2022/10/16 06:08:10;;;;;;;5.80;2.80;;;;;;;10.75;100.00;101026.94;5263629;28;20508;-63
2022/10/16 06:10:43;;;;;;;6.25;2.88;;;;;;;10.71;100.00;101030.81;5271127;28;20037;-64
2022/10/16 06:13:15;;;;;;;8.48;2.78;;;;;;;10.67;100.00;101036.50;5271895;28;20448;-64
2022/10/16 06:15:46;;;;;;;5.32;2.42;;;;;;;10.71;100.00;101044.13;5257258;28;20036;-64
2022/10/16 06:18:17;;;;;;;8.02;2.65;;;;;;;10.71;100.00;101048.63;5264688;28;20039;-66
2022/10/16 06:20:49;;;;;;;5.65;2.78;;;;;;;10.66;100.00;101051.66;5268144;28;20029;-64
2022/10/16 06:23:20;;;;;;;5.78;2.67;;;;;;;10.66;100.00;101064.13;5268944;28;20447;-64
2022/10/16 06:25:51;;;;;;;6.38;2.60;;;;;;;10.62;100.00;101071.50;5266496;28;20091;-64
2022/10/16 06:28:23;;;;;;;5.05;2.42;;;;;;;10.73;100.00;101068.06;5263492;28;20035;-64
2022/10/16 06:30:59;;;;;;;6.65;3.15;;;;;;;10.70;100.00;101069.16;5264872;28;20419;-64
2022/10/16 06:33:31;;;;;;;5.90;2.90;;;;;;;10.67;100.00;101079.19;5264069;28;20048;-64
2022/10/16 06:36:05;;;;;;;8.15;2.80;;;;;;;10.79;100.00;101073.78;5266606;28;20233;-64
2022/10/16 06:38:37;;;;;;;5.25;2.40;;;;;;;10.65;100.00;101079.28;5262333;28;20311;-64
2022/10/16 06:41:14;;;;;;;5.90;2.50;;;;;;;10.64;100.00;101085.56;5268927;28;20028;-64
2022/10/16 06:43:46;;;;;;;4.47;2.60;;;;;;;10.64;100.00;101085.56;5267546;28;20016;-64
2022/10/16 06:46:21;;;;;;;7.60;2.80;;;;;;;10.64;100.00;101093.59;5269135;28;20037;-64
2022/10/16 06:48:53;;;;;;;6.68;2.78;;;;;;;10.64;100.00;101093.59;5272480;28;20482;-65
2022/10/16 06:51:25;;;;;;;7.43;2.58;;;;;;;10.69;100.00;101098.59;5269554;28;20024;-64
2022/10/16 06:53:56;;;;;;;5.53;2.63;;;;;;;10.73;100.00;101106.25;5272947;28;20134;-64
2022/10/16 06:56:29;;;;;;;4.80;2.50;;;;;;;10.74;100.00;101112.47;5262963;28;20055;-64
2022/10/16 06:59:01;;;;;;;5.82;2.50;;;;;;;10.74;100.00;101112.47;5266047;28;20127;-64
2022/10/16 07:01:33;;;;;;;7.03;2.75;;;;;;;10.73;100.00;101111.59;5266419;28;20036;-64
2022/10/16 07:04:04;;;;;;;7.70;2.63;;;;;;;10.79;100.00;101115.63;5273837;28;20539;-64
2022/10/16 07:06:35;;;;;;;5.68;2.53;;;;;;;10.77;100.00;101123.75;5266552;28;20055;-69
2022/10/16 07:09:12;;;;;;;5.93;2.60;;;;;;;10.93;100.00;101123.50;5273522;28;20041;-69
2022/10/16 07:11:43;;;;;;;5.90;2.58;;;;;;;10.83;100.00;101124.28;5269176;28;20036;-69
2022/10/16 07:14:20;;;;;;;5.32;2.60;;;;;;;10.90;100.00;101134.41;5274321;28;20121;-69
2022/10/16 07:16:51;;;;;;;6.68;2.67;;;;;;;10.91;100.00;101138.78;5270196;28;20359;-70
2022/10/16 07:19:22;;;;;;;6.60;2.67;;;;;;;10.97;100.00;101141.00;5270571;28;20072;-69
2022/10/16 07:21:54;;;;;;;7.40;3.03;;;;;;;10.96;100.00;101141.94;5280424;28;20068;-69
2022/10/16 07:24:25;;;;;;;4.53;2.60;;;;;;;11.01;100.00;101143.41;5267261;28;20027;-69
2022/10/16 07:26:56;;;;;;;4.35;2.55;;;;;;;11.06;100.00;101155.47;5274766;28;20067;-69
2022/10/16 07:29:28;;;;;;;7.30;3.00;;;;;;;11.09;100.00;101157.09;5265908;28;20028;-69
2022/10/16 07:31:59;;;;;;;5.22;2.50;;;;;;;11.26;100.00;101159.34;5263610;28;20056;-70
2022/10/16 07:34:30;;;;;;;7.57;3.53;;;;;;;11.19;100.00;101169.63;5265342;28;20483;-69
2022/10/16 07:37:01;;;;;;;5.55;3.05;;;;;;;11.29;100.00;101175.13;5273903;28;20348;-69
2022/10/16 07:39:33;;;;;;;7.57;3.08;;;;;;;11.28;100.00;101183.28;5262502;28;20391;-69
2022/10/16 07:42:04;;;;;;;8.20;3.00;;;;;;;11.36;100.00;101172.88;5267697;28;20024;-69
2022/10/16 07:44:35;;;;;;;6.57;2.83;;;;;;;11.40;100.00;101193.03;5259495;28;20073;-69
2022/10/16 07:47:07;;;;;;;7.82;4.22;;;;;;;11.43;100.00;101200.84;5263356;28;20037;-69
2022/10/16 07:49:39;;;;;;;7.07;3.10;;;;;;;11.50;100.00;101202.06;5266590;28;20116;-69
2022/10/16 07:52:10;;;;;;;5.70;2.80;;;;;;;11.56;100.00;101196.28;5264290;28;20027;-69
2022/10/16 07:54:41;;;;;;;6.47;2.90;;;;;;;11.60;100.00;101212.91;5267542;28;20462;-69
2022/10/16 07:57:18;;;;;;;6.43;2.92;;;;;;;11.74;100.00;101215.41;5285144;28;20560;-69
2022/10/16 07:59:50;;;;;;;6.45;2.80;;;;;;;11.78;100.00;101213.38;5285209;28;20121;-70
2022/10/16 08:02:21;;;;;;;7.63;2.90;;;;;;;11.75;100.00;101217.16;5286500;28;20016;-69
2022/10/16 08:04:52;;;;;;;7.38;3.25;;;;;;;11.83;100.00;101215.69;5286230;28;20024;-70
2022/10/16 08:07:23;;;;;;;7.70;3.25;;;;;;;11.78;100.00;101226.75;5290260;28;20031;-69
2022/10/16 08:09:56;;;;;;;5.68;2.58;;;;;;;11.85;100.00;101222.66;5285862;28;20031;-69
2022/10/16 08:12:27;;;;;;;7.25;2.55;;;;;;;11.94;100.00;101229.13;5288202;28;20043;-69
2022/10/16 08:14:58;;;;;;;6.35;2.75;;;;;;;11.95;100.00;101238.88;5281122;28;20036;-70
2022/10/16 08:17:30;;;;;;;5.63;2.50;;;;;;;11.96;100.00;101241.41;5263116;28;20030;-69
2022/10/16 08:20:02;;;;;;;6.38;2.90;;;;;;;11.98;100.00;101248.47;5262146;28;20039;-69
2022/10/16 08:22:33;;;;;;;7.38;2.80;;;;;;;11.98;100.00;101243.97;5258419;28;20110;-69
2022/10/16 08:25:05;;;;;;;7.47;2.30;;;;;;;12.05;100.00;101252.38;5260104;28;20025;-69
2022/10/16 08:27:36;;;;;;;8.38;2.50;;;;;;;12.13;100.00;101260.66;5259878;28;20047;-69
2022/10/16 08:30:08;;;;;;;9.30;2.75;;;;;;;12.15;100.00;101261.41;5256768;28;20028;-69
2022/10/16 08:32:41;;;;;;;5.93;2.38;;;;;;;12.25;100.00;101258.88;5270616;28;20020;-69
2022/10/16 08:35:14;;;;;;;5.75;2.20;;;;;;;12.26;100.00;101258.75;5265907;28;20068;-69
2022/10/16 08:37:45;;;;;;;6.70;2.65;;;;;;;12.28;100.00;101272.03;5261975;28;20047;-69
2022/10/16 08:40:24;;;;;;;5.90;2.83;;;;;;;12.42;100.00;101278.97;5269634;28;20550;-69
2022/10/16 08:43:22;;;;;;;6.95;2.45;;;;;;;12.43;100.00;101278.88;5277789;28;20065;-69
2022/10/16 08:46:21;;;;;;;6.35;2.22;;;;;;;12.45;100.00;101282.28;5284070;28;20438;-69
2022/10/16 08:48:58;;;;;;;4.70;2.47;;;;;;;12.51;100.00;101281.78;5264281;28;20132;-69
2022/10/16 08:51:32;;;;;;;6.43;2.30;;;;;;;12.51;100.00;101288.97;5265922;28;20086;-69
2022/10/16 08:54:28;;;;;;;7.75;2.42;;;;;;;12.57;100.00;101293.84;5271085;28;20059;-68
2022/10/16 08:57:18;;;;;;;4.85;2.10;;;;;;;12.63;100.00;101293.38;5269630;28;20036;-68
2022/10/16 08:59:51;;;;;;;6.88;2.17;;;;;;;12.65;100.00;101290.56;5262234;28;20031;-68
2022/10/16 09:02:46;;;;;;;4.80;2.00;;;;;;;12.73;100.00;101294.38;5279834;28;20020;-69
2022/10/16 09:05:23;;;;;;;7.05;2.15;;;;;;;12.80;100.00;101296.56;5286555;28;20032;-68
2022/10/16 09:08:19;;;;;;;4.50;1.60;;;;;;;12.86;100.00;101299.59;5274169;28;20054;-69
2022/10/16 09:10:57;;;;;;;6.68;1.90;;;;;;;13.02;100.00;101299.25;5282232;28;20047;-68
2022/10/16 09:13:55;;;;;;;6.88;1.80;;;;;;;13.05;100.00;101311.53;5281993;28;20102;-69
2022/10/16 09:16:37;;;;;;;5.32;1.52;;;;;;;13.12;100.00;101316.28;5281644;28;20069;-69
2022/10/16 09:19:28;;;;;;;6.97;2.22;;;;;;;13.27;100.00;101319.56;5279220;28;20450;-69
2022/10/16 09:22:08;;;;;;;8.75;1.85;;;;;;;13.39;100.00;101309.72;5290305;28;20111;-69
2022/10/16 09:24:40;;;;;;;4.80;1.40;;;;;;;13.42;100.00;101316.66;5284502;28;20115;-69
2022/10/16 09:27:13;;;;;;;7.47;1.77;;;;;;;13.39;100.00;101317.75;5285894;28;20120;-69
2022/10/16 09:29:45;;;;;;;6.15;1.70;;;;;;;13.43;100.00;101318.38;5281291;28;20133;-70
2022/10/16 09:32:20;;;;;;;8.40;1.80;;;;;;;13.51;100.00;101316.75;5283219;28;20111;-70
2022/10/16 09:34:56;;;;;;;5.57;1.85;;;;;;;13.56;100.00;101320.88;5281548;28;20024;-70
2022/10/16 09:37:27;;;;;;;5.55;1.48;;;;;;;13.74;100.00;101327.44;5289600;28;20627;-70
2022/10/16 09:39:59;;;;;;;8.73;1.80;;;;;;;13.81;100.00;101317.91;5277003;28;20114;-70
2022/10/16 09:42:34;;;;;;;6.03;1.58;;;;;;;14.01;100.00;101329.66;5260310;28;20032;-70
2022/10/16 09:45:06;;;;;;;11.32;1.95;;;;;;;13.98;100.00;101331.72;5278705;28;20032;-70
2022/10/16 09:47:42;;;;;;;7.90;2.10;;;;;;;13.95;100.00;101327.47;5261570;28;20036;-70
2022/10/16 09:50:34;;;;;;;5.50;1.55;;;;;;;14.01;100.00;101331.47;5285157;28;20032;-70
2022/10/16 09:53:10;;;;;;;8.25;2.50;;;;;;;13.96;100.00;101326.53;5285130;28;20454;-70
2022/10/16 09:55:49;;;;;;;7.82;1.50;;;;;;;13.93;100.00;101334.81;5286541;28;20052;-70
2022/10/16 09:58:23;;;;;;;7.55;1.45;;;;;;;13.92;100.00;101336.66;5282179;28;20028;-70
2022/10/16 10:00:54;;;;;;;9.27;1.45;;;;;;;14.00;100.00;101332.44;5284990;28;20028;-71
2022/10/16 10:03:39;;;;;;;8.60;1.58;;;;;;;14.12;100.00;101337.66;5285757;28;20035;-70
2022/10/16 10:06:18;;;;;;;9.20;1.80;;;;;;;14.16;100.00;101349.00;5284532;28;20032;-70
2022/10/16 10:09:00;;;;;;;8.15;1.65;;;;;;;14.27;100.00;101346.25;5282748;28;20075;-70
2022/10/16 10:11:37;;;;;;;8.15;1.73;;;;;;;14.30;100.00;101340.66;5283719;28;20514;-70
2022/10/16 10:14:36;;;;;;;5.93;1.50;;;;;;;14.38;100.00;101344.50;5282332;28;20035;-70
2022/10/16 10:17:22;;;;;;;7.57;1.90;;;;;;;14.47;100.00;101346.41;5291695;28;20504;-70
2022/10/16 10:20:00;;;;;;;8.93;1.90;;;;;;;14.47;100.00;101354.44;5278270;28;20033;-70
2022/10/16 10:22:45;;;;;;;7.05;1.65;;;;;;;14.51;100.00;101353.22;5280586;28;20423;-71
2022/10/16 10:25:45;;;;;;;8.15;1.77;;;;;;;14.50;100.00;101356.88;5284444;28;20028;-70
2022/10/16 10:28:25;;;;;;;9.27;2.45;;;;;;;14.46;100.00;101358.13;5280756;28;20127;-71
2022/10/16 10:31:06;;;;;;;8.80;1.67;;;;;;;14.47;100.00;101366.03;5289996;28;20373;-70
2022/10/16 10:33:50;;;;;;;11.43;2.63;;;;;;;14.42;100.00;101368.28;5270103;28;20082;-70
2022/10/16 10:36:35;;;;;;;8.90;1.95;;;;;;;14.39;100.00;101370.38;5286196;28;20037;-69
2022/10/16 10:39:18;;;;;;;7.88;1.77;;;;;;;14.40;100.00;101366.69;5282320;28;20387;-69
2022/10/16 10:42:06;;;;;;;7.38;1.80;;;;;;;14.43;100.00;101363.75;5293626;28;20445;-69
2022/10/16 10:44:53;;;;;;;9.75;1.80;;;;;;;14.45;100.00;101365.31;5281983;28;20066;-70
2022/10/16 10:48:01;;;;;;;11.30;1.85;;;;;;;14.41;100.00;101363.03;5281388;28;20586;-70
2022/10/16 10:50:44;;;;;;;10.88;1.90;;;;;;;14.49;100.00;101366.75;5274379;28;20111;-70
2022/10/16 10:53:46;;;;;;;10.23;2.00;;;;;;;14.32;100.00;101383.44;5285187;28;20056;-70
2022/10/16 10:56:45;;;;;;;10.55;2.15;;;;;;;14.26;100.00;101384.81;5290304;28;20032;-70
2022/10/16 10:59:32;;;;;;;10.82;2.30;;;;;;;14.26;100.00;101378.59;5282398;28;20107;-70
2022/10/16 11:02:26;;;;;;;11.88;2.20;;;;;;;14.24;100.00;101381.41;5293209;28;20106;-71
2022/10/16 11:05:29;;;;;;;14.55;2.15;;;;;;;14.23;100.00;101378.84;5288684;28;20158;-70
2022/10/16 11:08:08;;;;;;;7.50;1.80;;;;;;;14.17;100.00;101382.03;5286917;28;20363;-70
2022/10/16 11:10:52;;;;;;;14.10;2.30;;;;;;;14.12;100.00;101383.28;5274867;28;20029;-70
2022/10/16 11:13:33;;;;;;;11.13;2.57;;;;;;;14.15;100.00;101378.63;5286210;28;20040;-70
2022/10/16 11:16:15;;;;;;;12.60;2.53;;;;;;;14.18;100.00;101383.75;5289833;28;20482;-70
2022/10/16 11:18:58;;;;;;;10.27;2.40;;;;;;;14.20;100.00;101381.78;5289290;28;21702;-70
2022/10/16 11:21:37;;;;;;;10.18;2.28;;;;;;;14.17;100.00;101379.34;5291306;28;20179;-70
2022/10/16 11:24:21;;;;;;;13.00;2.42;;;;;;;14.24;100.00;101389.44;5285634;28;20028;-70
2022/10/16 11:26:54;;;;;;;10.60;2.47;;;;;;;14.28;100.00;101382.84;5280673;28;20036;-70
2022/10/16 11:29:31;;;;;;;9.85;1.90;;;;;;;14.42;100.00;101386.19;5283643;28;20346;-70
2022/10/16 11:32:20;;;;;;;7.38;1.98;;;;;;;14.50;100.00;101383.75;5284519;28;20178;-70
2022/10/16 11:34:57;;;;;;;12.70;3.05;;;;;;;14.61;100.00;101385.53;5283565;28;20028;-70
2022/10/16 11:37:44;;;;;;;9.88;1.88;;;;;;;14.69;100.00;101389.28;5288003;28;20484;-70
2022/10/16 11:40:30;;;;;;;10.10;2.70;;;;;;;14.73;100.00;101386.31;5283249;28;20488;-70
2022/10/16 11:43:14;;;;;;;14.13;2.47;;;;;;;14.72;100.00;101392.69;5286973;28;20039;-70
2022/10/16 11:45:51;;;;;;;8.55;2.00;;;;;;;14.82;100.00;101390.91;5282995;28;20039;-71
2022/10/16 11:49:03;;;;;;;13.35;1.90;;;;;;;14.97;100.00;101392.28;5286055;28;20028;-70
2022/10/16 11:51:54;;;;;;;10.25;1.98;;;;;;;15.07;100.00;101395.00;5293155;28;20024;-71
2022/10/16 11:54:48;;;;;;;9.40;1.95;;;;;;;15.12;100.00;101400.84;5279588;28;20452;-70
2022/10/16 11:57:23;;;;;;;7.15;1.70;;;;;;;15.19;100.00;101398.50;5287368;28;20028;-71